NCAR-RAP Real-Time Weather Data

Output produced by METARs form (23 February 2020  01:24 UTC)
found at http://weather.rap.ucar.edu/surface/
 
KCRW 230054Z 00000KT 10SM CLR 03/M13 A3029 RMK AO2 SLP269 T00331133
KCRW 222354Z 20005KT 10SM CLR 07/M16 A3030 RMK AO2 SLP270 T00721156 10106 20061 56005
KCRW 222254Z 22004KT 10SM CLR 08/M14 A3030 RMK AO2 SLP269 T00831144
KCRW 222154Z 25006KT 10SM CLR 10/M15 A3031 RMK AO2 SLP271 T01001150
KCRW 222054Z 20006KT 10SM CLR 09/M15 A3032 RMK AO2 SLP273 T00941150 56026
KCRW 221954Z VRB05KT 10SM CLR 09/M14 A3033 RMK AO2 SLP280 T00891139
KCRW 221854Z 20004KT 10SM CLR 07/M14 A3036 RMK AO2 SLP288 T00721139
KCRW 221754Z VRB03KT 10SM CLR 07/M12 A3040 RMK AO2 SLP301 I6000 T00671117 10067 21083 58030
KCRW 221654Z 24006KT 10SM CLR 04/M12 A3045 RMK AO2 SLP319 T00391122
KCRW 221554Z 22006KT 10SM CLR 02/M11 A3047 RMK AO2 SLP329 T00221106
KCRW 221454Z 00000KT 10SM CLR 00/M07 A3049 RMK AO2 SLP334 I3000 T00001072 50011
KCRW 221354Z 00000KT 10SM CLR M04/M08 A3050 RMK AO2 SLP338 T10441083
KCRW 221254Z 00000KT 10SM FEW000 M08/M09 A3047 RMK AO2 SLP330 FG FEW000 I1000 T10781094
KCRW 221154Z 02003KT 10SM CLR M08/M10 A3045 RMK AO2 SLP325 I1001 I6001 T10781100 11050 21078 53007
KCRW 221054Z 00000KT 10SM CLR M07/M10 A3044 RMK AO2 SLP320 T10721100
KCRW 220954Z 00000KT 10SM CLR M07/M10 A3044 RMK AO2 SLP319 I1000 T10721100
KCRW 220854Z 00000KT 10SM CLR M07/M09 A3043 RMK AO2 SLP317 T10671094 58004
KCRW 220754Z 00000KT 10SM CLR M07/M10 A3043 RMK AO2 SLP316 T10671100
KCRW 220654Z 00000KT 10SM CLR M06/M10 A3045 RMK AO2 SLP322 T10561100
KCRW 220554Z 00000KT 10SM CLR M05/M10 A3045 RMK AO2 SLP321 T10501100 10000 21056 58019
KCRW 220454Z 00000KT 10SM CLR M04/M11 A3047 RMK AO2 SLP329 T10391111 400331083
KCRW 220354Z 00000KT 10SM CLR M03/M12 A3050 RMK AO2 SLP338 T10331117
KCRW 220254Z 00000KT 10SM CLR M03/M12 A3050 RMK AO2 SLP341 T10331117 58006
KCRW 220154Z 00000KT 10SM CLR M02/M12 A3051 RMK AO2 SLP343 T10221122
KCRW 220054Z 16003KT 10SM CLR M02/M13 A3052 RMK AO2 SLP346 T10171133
KCRW 212354Z 00000KT 10SM CLR 00/M14 A3052 RMK AO2 SLP347 T00001139 10033 21011 55002
KCRW 212254Z 27003KT 10SM CLR 02/M15 A3051 RMK AO2 SLP344 T00171150
KCRW 212154Z VRB05KT 10SM CLR 03/M14 A3051 RMK AO2 SLP344 T00281139
KCRW 212054Z VRB05KT 10SM CLR 02/M13 A3052 RMK AO2 SLP348 T00171133 56021
KCRW 211954Z 22006KT 10SM CLR 01/M12 A3053 RMK AO2 SLP351 T00111117
KCRW 211854Z 20007KT 10SM CLR 00/M12 A3056 RMK AO2 SLP359 T00001117
KCRW 211754Z 00000KT 10SM CLR M01/M12 A3059 RMK AO2 SLP370 T10111122 11011 21083 58009
KCRW 211654Z 00000KT 10SM CLR M02/M13 A3061 RMK AO2 SLP376 T10221133
KCRW 211554Z 00000KT 10SM CLR M04/M13 A3062 RMK AO2 SLP380 T10391128
KCRW 211454Z 00000KT 10SM FEW030 M06/M12 A3062 RMK AO2 SLP380 T10561122 50016 $
KCRW 211354Z 00000KT 10SM CLR M06/M13 A3062 RMK AO2 SLP380 T10611128 $
KCRW 211254Z 00000KT 10SM CLR M07/M13 A3060 RMK AO2 SLP372 T10721128 $
KCRW 211154Z 00000KT 10SM CLR M08/M12 A3057 RMK AO2 SLP363 T10831122 11044 21083 53013 $
KCRW 211054Z 00000KT 10SM CLR M08/M13 A3055 RMK AO2 SLP357 T10781128 $
KCRW 210954Z 35003KT 10SM CLR M07/M13 A3053 RMK AO2 SLP351 T10721128 $
KCRW 210854Z 02003KT 10SM CLR M07/M13 A3053 RMK AO2 SLP348 T10671128 50003 $
KCRW 210754Z VRB03KT 10SM CLR M06/M13 A3053 RMK AO2 SLP349 T10611128 $
KCRW 210654Z 36006KT 10SM CLR M06/M12 A3053 RMK AO2 SLP347 T10561122 $
KCRW 210554Z 35009G15KT 10SM CLR M04/M12 A3052 RMK AO2 SLP345 T10441117 10011 21044 51012 $
KCRW 210454Z 33007KT 10SM SCT150 M03/M11 A3051 RMK AO2 SLP343 T10331111 400501033 $
KCRW 210354Z 35006G16KT 10SM SCT049 M03/M11 A3050 RMK AO2 SLP337 T10281111
KCRW 210254Z 35008KT 10SM BKN047 M02/M10 A3048 RMK AO2 SLP332 T10171100 53022
KCRW 210154Z 01013G18KT 10SM BKN045 00/M10 A3045 RMK AO2 SLP321 T00001100